Country
Station

 

Weather  for  Spartanburg Memorial  -  United States    United States

  
11 °C (52 °F)
    
 
 

Current METAR for Spartanburg Memorial is :

KSPA 111915Z AUTO 26009KT 10SM CLR 11/M06 A3017 RMK AO2

 

This is a report for Spartanburg Memorial - United States.
 
The report was made 12 minutes ago, at 19:15 UTC .
The wind was blowing at a speed of 4.6 meters per second (10.4 miles per hour) from west (260°).
 
The temperature was 11 °C (52 °F), with a dew-point at -6 °C (21 °F).
The atmospheric pressure was 1022 hPa (30.17 inHg).
The relative humidity was 29.7%.
 
The sky was clear.
 
The overall visibility was 16.1 kilometers (10.0 miles).
 

 
 
 
 

Country :   A   B   C   D   E   F   G   H   I   J   K   L   M   N   O   P   Q   R   S   T   U   V   W   Y   Z

 

Site Info  |  Disclaimer  |  Credits  |  Privacy
Contact us  |  Add to favorites
© 2013-2018 METARs - All rights reserved